createdAt,value
2023-01-11T00:02:00.976Z,7.58
2023-01-11T00:04:30.300Z,7.39
2023-01-11T00:06:57.524Z,7.41
2023-01-11T00:09:24.152Z,7.44
2023-01-11T00:11:50.608Z,7.76
2023-01-11T00:14:17.107Z,7.39
2023-01-11T00:16:43.645Z,7.54
2023-01-11T00:19:10.189Z,7.48
2023-01-11T00:21:36.743Z,7.73
2023-01-11T00:24:03.395Z,7.40
2023-01-11T00:26:29.905Z,7.36
2023-01-11T00:28:56.512Z,7.37
2023-01-11T00:31:23.020Z,7.36
2023-01-11T00:33:49.646Z,7.34
2023-01-11T00:36:16.201Z,7.39
2023-01-11T00:38:51.670Z,7.53
2023-01-11T00:41:38.650Z,7.39
2023-01-11T00:44:24.365Z,7.44
2023-01-11T00:47:10.292Z,7.50
2023-01-11T00:49:36.838Z,7.56
2023-01-11T00:52:08.619Z,7.71
2023-01-11T00:54:39.713Z,7.50
2023-01-11T00:57:07.510Z,7.74
2023-01-11T00:59:34.964Z,7.91
2023-01-11T01:02:01.600Z,7.92
2023-01-11T01:04:28.153Z,7.76
2023-01-11T01:06:54.893Z,7.61
2023-01-11T01:09:21.841Z,7.50
2023-01-11T01:11:48.389Z,7.78
2023-01-11T01:14:31.020Z,7.80
2023-01-11T01:17:02.292Z,7.83
2023-01-11T01:19:30.438Z,7.90
2023-01-11T01:21:58.829Z,7.96
2023-01-11T01:24:28.735Z,7.89
2023-01-11T01:26:56.082Z,8.15
2023-01-11T01:29:23.024Z,8.31
2023-01-11T01:31:49.579Z,8.04
2023-01-11T01:34:16.769Z,7.68
2023-01-11T01:36:43.585Z,8.03
2023-01-11T01:39:11.219Z,8.01
2023-01-11T01:41:37.783Z,7.80
2023-01-11T01:44:25.372Z,7.62
2023-01-11T01:46:51.987Z,7.76
2023-01-11T01:49:18.681Z,7.93
2023-01-11T01:51:51.596Z,7.76
2023-01-11T01:54:25.892Z,7.52
2023-01-11T01:56:58.532Z,7.48
2023-01-11T01:59:28.073Z,7.53
2023-01-11T02:01:54.973Z,7.57
2023-01-11T02:04:52.937Z,7.78
2023-01-11T02:07:22.527Z,7.76
2023-01-11T02:09:49.025Z,7.73
2023-01-11T02:12:16.205Z,7.88
2023-01-11T02:14:44.667Z,7.75
2023-01-11T02:17:11.891Z,7.60
2023-01-11T02:19:51.229Z,7.89
2023-01-11T02:22:55.106Z,8.02
2023-01-11T02:25:59.640Z,8.11
2023-01-11T02:28:51.266Z,7.94
2023-01-11T02:31:36.053Z,7.87
2023-01-11T02:34:23.918Z,7.86
2023-01-11T02:36:58.686Z,7.80
2023-01-11T02:39:45.997Z,7.95
2023-01-11T02:42:39.592Z,7.92
2023-01-11T02:45:43.783Z,7.76
2023-01-11T02:48:17.770Z,7.98
2023-01-11T02:50:53.622Z,7.83
2023-01-11T02:53:25.157Z,7.58
2023-01-11T02:55:58.379Z,7.66
2023-01-11T02:58:29.725Z,7.69
2023-01-11T03:00:58.442Z,7.54
2023-01-11T03:03:27.739Z,7.70
2023-01-11T03:05:59.048Z,7.53
2023-01-11T03:08:46.820Z,7.71
2023-01-11T03:11:52.525Z,8.03
2023-01-11T03:14:36.261Z,7.69
2023-01-11T03:17:20.050Z,7.99
2023-01-11T03:19:52.943Z,7.87
2023-01-11T03:22:37.665Z,7.84
2023-01-11T03:25:45.422Z,7.99
2023-01-11T03:28:22.354Z,7.70
2023-01-11T03:31:01.377Z,8.02
2023-01-11T03:33:43.411Z,8.10
2023-01-11T03:36:22.915Z,8.27
2023-01-11T03:38:55.817Z,7.87
2023-01-11T03:41:29.224Z,7.71
2023-01-11T03:44:01.270Z,8.16
2023-01-11T03:46:32.784Z,8.13
2023-01-11T03:49:07.908Z,8.31
2023-01-11T03:51:40.440Z,8.16
2023-01-11T03:54:08.392Z,8.14
2023-01-11T03:57:03.944Z,7.81
2023-01-11T03:59:30.839Z,8.00
2023-01-11T04:01:57.974Z,8.38
2023-01-11T04:04:24.600Z,8.09
2023-01-11T04:06:51.373Z,7.95
2023-01-11T04:09:17.919Z,8.07
2023-01-11T04:11:44.916Z,8.23
2023-01-11T04:14:11.402Z,8.52
2023-01-11T04:16:38.052Z,8.49
2023-01-11T04:19:04.601Z,8.45
2023-01-11T04:21:31.137Z,8.40
2023-01-11T04:23:57.604Z,8.48
2023-01-11T04:26:24.084Z,8.19
2023-01-11T04:28:52.799Z,8.48
2023-01-11T04:31:20.675Z,8.43
2023-01-11T04:33:47.191Z,8.25
2023-01-11T04:36:13.833Z,8.39
2023-01-11T04:38:40.350Z,8.44
2023-01-11T04:41:25.277Z,8.34
2023-01-11T04:43:56.331Z,8.32
2023-01-11T04:46:24.262Z,8.40
2023-01-11T04:48:51.362Z,8.29
2023-01-11T04:51:18.268Z,8.56
2023-01-11T04:53:48.038Z,8.65
2023-01-11T04:56:15.766Z,8.61
2023-01-11T04:58:42.310Z,8.45
2023-01-11T05:01:15.241Z,8.40
2023-01-11T05:03:41.989Z,8.75
2023-01-11T05:06:08.864Z,8.70
2023-01-11T05:08:35.685Z,8.80
2023-01-11T05:11:05.239Z,8.69
2023-01-11T05:13:44.195Z,8.68
2023-01-11T05:16:21.114Z,8.65
2023-01-11T05:18:53.136Z,9.01
2023-01-11T05:21:22.610Z,9.04
2023-01-11T05:23:49.201Z,8.86
2023-01-11T05:26:18.367Z,9.12
2023-01-11T05:28:46.616Z,9.06
2023-01-11T05:31:13.502Z,8.94
2023-01-11T05:33:40.173Z,8.84
2023-01-11T05:36:10.441Z,8.85
2023-01-11T05:38:36.954Z,9.20
2023-01-11T05:41:06.207Z,8.95
2023-01-11T05:43:34.095Z,9.04
2023-01-11T05:46:00.969Z,9.04
2023-01-11T05:48:27.904Z,9.04
2023-01-11T05:50:55.729Z,9.34
2023-01-11T05:53:24.019Z,8.98
2023-01-11T05:55:54.462Z,9.10
2023-01-11T05:58:22.239Z,9.07
2023-01-11T06:00:54.426Z,8.84
2023-01-11T06:03:22.129Z,9.09
2023-01-11T06:05:48.950Z,8.97
2023-01-11T06:08:15.892Z,8.97
2023-01-11T06:10:42.931Z,9.01
2023-01-11T06:13:27.893Z,8.90
2023-01-11T06:15:58.190Z,8.95
2023-01-11T06:18:24.735Z,9.05
2023-01-11T06:20:52.740Z,8.82
2023-01-11T06:23:19.805Z,9.03
2023-01-11T06:25:46.347Z,8.83
2023-01-11T06:28:13.686Z,8.94
2023-01-11T06:30:40.461Z,8.89
2023-01-11T06:33:07.392Z,8.75
2023-01-11T06:35:38.664Z,8.83
2023-01-11T06:38:06.168Z,8.82
2023-01-11T06:40:32.947Z,8.83
2023-01-11T06:42:59.445Z,8.92
2023-01-11T06:45:25.941Z,8.83
2023-01-11T06:47:52.438Z,9.12
2023-01-11T06:50:19.057Z,9.04
2023-01-11T06:52:59.510Z,8.84
2023-01-11T06:55:27.983Z,8.92
2023-01-11T06:57:55.018Z,9.13
2023-01-11T07:00:22.001Z,9.00
2023-01-11T07:02:48.914Z,8.93
2023-01-11T07:05:18.879Z,8.92
2023-01-11T07:07:45.855Z,9.09
2023-01-11T07:10:15.673Z,9.02
2023-01-11T07:12:42.512Z,9.09
2023-01-11T07:15:10.175Z,9.27
2023-01-11T07:17:37.063Z,9.10
2023-01-11T07:20:05.237Z,9.14
2023-01-11T07:22:36.127Z,9.12
2023-01-11T07:25:04.800Z,9.24
2023-01-11T07:27:31.635Z,9.32
2023-01-11T07:30:01.367Z,9.36
2023-01-11T07:32:28.515Z,9.39
2023-01-11T07:34:55.912Z,9.19
2023-01-11T07:37:28.447Z,9.40
2023-01-11T07:39:55.995Z,9.27
2023-01-11T07:42:42.025Z,9.15
2023-01-11T07:45:08.995Z,9.52
2023-01-11T07:47:35.485Z,9.54
2023-01-11T07:50:02.028Z,9.54
2023-01-11T07:52:28.505Z,9.65
2023-01-11T07:54:55.129Z,9.44
2023-01-11T07:57:21.581Z,9.50
2023-01-11T07:59:48.100Z,9.41
2023-01-11T08:02:14.639Z,9.61
2023-01-11T08:04:41.126Z,9.54
2023-01-11T08:07:07.600Z,9.54
2023-01-11T08:09:34.144Z,9.57
2023-01-11T08:12:19.051Z,9.67
2023-01-11T08:14:45.699Z,9.74
2023-01-11T08:17:15.050Z,9.49
2023-01-11T08:19:42.480Z,9.66
2023-01-11T08:22:10.088Z,9.56
2023-01-11T08:24:36.707Z,9.68
2023-01-11T08:27:04.312Z,9.63
2023-01-11T08:29:31.272Z,9.62
2023-01-11T08:31:59.272Z,9.51
2023-01-11T08:34:27.589Z,9.80
2023-01-11T08:36:54.248Z,9.82
2023-01-11T08:39:20.921Z,9.99
2023-01-11T08:41:47.453Z,9.72
2023-01-11T08:44:14.974Z,9.49
2023-01-11T08:46:41.684Z,9.71
2023-01-11T08:49:12.032Z,9.73
2023-01-11T08:51:42.175Z,9.83
2023-01-11T08:54:14.053Z,9.97
2023-01-11T08:56:40.841Z,9.86
2023-01-11T08:59:07.351Z,9.88
2023-01-11T09:01:33.873Z,9.89
2023-01-11T09:04:01.459Z,9.93
2023-01-11T09:06:28.867Z,9.95
2023-01-11T09:08:55.383Z,9.87
2023-01-11T09:11:40.783Z,9.88
2023-01-11T09:14:07.315Z,10.00
2023-01-11T09:16:34.128Z,9.81
2023-01-11T09:19:00.728Z,9.86
2023-01-11T09:21:27.364Z,9.96
2023-01-11T09:23:53.871Z,10.05
2023-01-11T09:26:20.409Z,10.00
2023-01-11T09:28:47.000Z,10.60
2023-01-11T09:31:13.536Z,10.03
2023-01-11T09:33:45.351Z,10.06
2023-01-11T09:36:21.576Z,10.11
2023-01-11T09:38:50.286Z,10.13
2023-01-11T09:41:34.490Z,10.07
2023-01-11T09:44:16.278Z,9.91
2023-01-11T09:46:51.359Z,10.11
2023-01-11T09:49:27.912Z,10.07
2023-01-11T09:52:13.080Z,10.00
2023-01-11T09:54:39.893Z,10.20
2023-01-11T09:57:26.613Z,10.10
2023-01-11T10:00:06.733Z,10.05
2023-01-11T10:03:05.101Z,10.22
2023-01-11T10:05:40.923Z,10.47
2023-01-11T10:18:29.664Z,10.06
2023-01-11T10:18:32.375Z,9.96
2023-01-11T10:21:04.891Z,10.03
2023-01-11T10:23:40.919Z,10.10
2023-01-11T10:26:24.094Z,10.26
2023-01-11T10:29:33.681Z,10.24
2023-01-11T10:32:22.160Z,10.34
2023-01-11T10:34:59.797Z,10.08
2023-01-11T10:38:05.819Z,10.04
2023-01-11T10:41:04.602Z,10.39
2023-01-11T10:43:39.644Z,10.57
2023-01-11T10:46:19.046Z,10.50
2023-01-11T10:48:47.069Z,10.79
2023-01-11T10:51:29.206Z,10.43
2023-01-11T10:54:14.053Z,10.60
2023-01-11T10:57:14.001Z,10.50
2023-01-11T10:59:59.292Z,10.30
2023-01-11T11:02:53.943Z,10.50
2023-01-11T11:05:35.674Z,10.40
2023-01-11T11:08:07.134Z,10.43
2023-01-11T11:10:54.867Z,10.92
2023-01-11T11:13:46.595Z,10.72
2023-01-11T11:16:22.369Z,10.64
2023-01-11T11:18:51.121Z,10.45
2023-01-11T11:21:26.470Z,10.49
2023-01-11T11:24:00.721Z,10.51
2023-01-11T11:26:41.581Z,10.93
2023-01-11T11:29:10.799Z,10.76
2023-01-11T11:31:42.897Z,11.03
2023-01-11T11:34:17.704Z,11.35
2023-01-11T11:36:46.993Z,11.65
2023-01-11T11:39:29.157Z,12.17
2023-01-11T11:42:03.839Z,11.59
2023-01-11T11:44:30.346Z,11.70
2023-01-11T11:47:01.966Z,11.56
2023-01-11T11:49:31.492Z,11.80
2023-01-11T11:52:00.569Z,11.99
2023-01-11T11:54:30.823Z,11.35
2023-01-11T11:57:00.126Z,11.74
2023-01-11T11:59:30.311Z,12.07
2023-01-11T12:02:03.557Z,12.01
2023-01-11T12:04:58.075Z,11.60
2023-01-11T12:07:28.213Z,11.55
2023-01-11T12:09:59.955Z,11.73
2023-01-11T12:12:29.327Z,11.52
2023-01-11T12:15:23.276Z,11.48
2023-01-11T12:18:21.210Z,11.59
2023-01-11T12:20:47.811Z,11.90
2023-01-11T12:23:18.732Z,11.72
2023-01-11T12:26:23.020Z,11.63
2023-01-11T12:29:04.783Z,11.85
2023-01-11T12:32:13.124Z,11.53
2023-01-11T12:34:52.842Z,11.59
2023-01-11T12:37:40.593Z,11.64
2023-01-11T12:40:34.637Z,11.45
2023-01-11T12:43:24.215Z,11.82
2023-01-11T12:46:16.438Z,11.61
2023-01-11T12:48:57.936Z,11.79
2023-01-11T12:52:00.591Z,11.65
2023-01-11T12:55:01.791Z,11.81
2023-01-11T12:58:07.879Z,11.54
2023-01-11T13:00:59.101Z,11.65
2023-01-11T13:03:49.234Z,11.59
2023-01-11T13:06:36.985Z,11.51
2023-01-11T13:09:20.611Z,11.48
2023-01-11T13:11:57.545Z,11.59
2023-01-11T13:14:41.907Z,11.61
2023-01-11T13:17:30.001Z,11.78
2023-01-11T13:20:11.538Z,11.65
2023-01-11T13:22:46.794Z,11.90
2023-01-11T13:25:36.524Z,11.68
2023-01-11T13:28:24.391Z,12.04
2023-01-11T13:30:51.720Z,11.62
2023-01-11T13:33:22.696Z,11.76
2023-01-11T13:35:54.954Z,11.74
2023-01-11T13:38:34.837Z,11.66
2023-01-11T13:41:19.316Z,11.64
2023-01-11T13:44:03.933Z,11.74
2023-01-11T13:46:56.582Z,11.53
2023-01-11T13:49:42.502Z,11.73
2023-01-11T13:52:18.377Z,11.88
2023-01-11T13:54:56.730Z,11.89
2023-01-11T13:57:47.901Z,12.17
2023-01-11T14:00:22.328Z,11.92
2023-01-11T14:02:57.490Z,11.90
2023-01-11T14:05:27.924Z,11.74
2023-01-11T14:08:01.793Z,11.91
2023-01-11T14:10:41.182Z,12.02
2023-01-11T14:13:51.793Z,11.87
2023-01-11T14:16:40.552Z,11.76
2023-01-11T14:19:29.589Z,11.60
2023-01-11T14:22:12.915Z,11.83
2023-01-11T14:24:47.392Z,11.49
2023-01-11T14:27:31.623Z,11.72
2023-01-11T14:30:06.684Z,11.68
2023-01-11T14:32:45.700Z,11.76
2023-01-11T14:35:34.242Z,11.47
2023-01-11T14:38:25.096Z,11.44
2023-01-11T14:41:18.403Z,11.59
2023-01-11T14:44:04.611Z,11.62
2023-01-11T14:46:41.020Z,11.51
2023-01-11T14:49:20.390Z,11.65
2023-01-11T14:52:07.548Z,11.61
2023-01-11T14:54:47.778Z,11.54
2023-01-11T14:57:43.525Z,11.58
2023-01-11T15:00:18.667Z,11.52
2023-01-11T15:02:46.336Z,11.39
2023-01-11T15:05:31.356Z,11.62
2023-01-11T15:08:13.148Z,11.76
2023-01-11T15:10:47.330Z,11.57
2023-01-11T15:13:36.330Z,11.33
2023-01-11T15:16:35.551Z,11.74
2023-01-11T15:19:07.403Z,11.39
2023-01-11T15:21:40.945Z,11.23
2023-01-11T15:24:22.426Z,11.40
2023-01-11T15:26:50.064Z,11.51
2023-01-11T15:29:29.543Z,11.49
2023-01-11T15:32:02.116Z,11.33
2023-01-11T15:34:56.627Z,11.27
2023-01-11T15:37:44.623Z,11.49
2023-01-11T15:40:16.823Z,11.64
2023-01-11T15:43:25.771Z,11.41
2023-01-11T15:46:31.804Z,11.33
2023-01-11T15:49:21.734Z,11.47
2023-01-11T15:52:07.229Z,11.37
2023-01-11T15:54:49.905Z,11.55
2023-01-11T15:57:34.913Z,11.41
2023-01-11T16:00:32.109Z,11.12
2023-01-11T16:03:20.429Z,11.13
2023-01-11T16:06:26.071Z,10.90
2023-01-11T16:09:07.435Z,10.89
2023-01-11T16:11:47.634Z,10.79
2023-01-11T16:14:33.592Z,10.95
2023-01-11T16:17:00.799Z,10.91
2023-01-11T16:19:36.474Z,10.87
2023-01-11T16:22:05.470Z,10.81
2023-01-11T16:24:44.839Z,10.85
2023-01-11T16:27:23.773Z,10.78
2023-01-11T16:29:51.393Z,10.80
2023-01-11T16:32:26.849Z,10.42
2023-01-11T16:34:55.094Z,10.32
2023-01-11T16:37:38.732Z,10.56
2023-01-11T16:40:16.378Z,10.39
2023-01-11T16:42:49.147Z,10.26
2023-01-11T16:45:24.058Z,10.09
2023-01-11T16:48:03.776Z,10.30
2023-01-11T16:50:30.714Z,10.03
2023-01-11T16:52:59.583Z,9.96
2023-01-11T16:55:37.617Z,10.12
2023-01-11T16:58:26.155Z,9.89
2023-01-11T17:01:05.472Z,9.92
2023-01-11T17:03:34.577Z,10.00
2023-01-11T18:03:20.662Z,9.41
2023-01-11T18:05:49.313Z,9.48
2023-01-11T18:08:22.090Z,9.48
2023-01-11T18:10:59.116Z,9.38
2023-01-11T18:13:39.040Z,9.32
2023-01-11T18:16:13.481Z,9.34
2023-01-11T18:18:52.678Z,9.32
2023-01-11T18:21:54.743Z,9.37
2023-01-11T18:24:45.491Z,9.38
2023-01-11T18:27:32.453Z,9.44
2023-01-11T18:30:09.633Z,9.32
2023-01-11T18:32:42.911Z,9.30
2023-01-11T18:35:18.916Z,9.34
2023-01-11T18:37:50.538Z,9.20
2023-01-11T18:40:24.370Z,9.26
2023-01-11T18:42:57.945Z,9.04
2023-01-11T18:53:27.145Z,9.09
2023-01-11T18:55:57.837Z,9.00
2023-01-11T18:58:24.606Z,8.91
2023-01-11T19:00:51.150Z,9.03
2023-01-11T19:03:17.871Z,8.85
2023-01-11T19:05:44.568Z,9.05
2023-01-11T19:08:13.328Z,8.91
2023-01-11T19:10:42.840Z,8.85
2023-01-11T19:13:10.636Z,8.82
2023-01-11T19:15:40.652Z,8.73
2023-01-11T19:18:11.769Z,8.85
2023-01-11T19:23:44.225Z,8.76
2023-01-11T19:26:14.349Z,8.81
2023-01-11T19:28:52.231Z,8.70
2023-01-11T19:31:22.694Z,8.67
2023-01-11T19:34:01.321Z,8.66
2023-01-11T19:36:36.576Z,8.74
2023-01-11T19:39:15.633Z,8.75
2023-01-11T19:42:07.066Z,8.54
2023-01-11T19:44:47.688Z,8.58
2023-01-11T19:47:44.624Z,8.67
2023-01-11T19:50:19.506Z,8.55
2023-01-11T19:52:53.211Z,8.63
2023-01-11T19:55:44.248Z,8.57
2023-01-11T19:58:18.643Z,8.53
2023-01-11T20:00:54.805Z,8.58
2023-01-11T20:03:28.036Z,8.62
2023-01-11T20:06:09.420Z,8.61
2023-01-11T20:08:43.160Z,8.48
2023-01-11T20:11:23.323Z,8.66
2023-01-11T20:13:56.175Z,8.61
2023-01-11T20:16:33.732Z,8.43
2023-01-11T20:19:05.421Z,8.59
2023-01-11T20:21:36.192Z,8.66
2023-01-11T20:24:13.761Z,8.31
2023-01-11T20:26:45.343Z,8.35
2023-01-11T20:29:17.308Z,8.47
2023-01-11T20:31:46.686Z,8.26
2023-01-11T20:34:18.548Z,8.43
2023-01-11T20:36:58.825Z,8.38
2023-01-11T20:39:40.402Z,8.37
2023-01-11T20:42:13.737Z,8.42
2023-01-11T20:44:45.330Z,8.56
2023-01-11T20:47:13.847Z,8.60
2023-01-11T20:49:40.751Z,8.35
2023-01-11T20:52:08.128Z,8.44
2023-01-11T20:54:35.711Z,8.35
2023-01-11T20:57:14.927Z,8.17
2023-01-11T20:59:43.426Z,8.36
2023-01-11T21:02:13.834Z,8.22
2023-01-11T21:04:45.773Z,8.40
2023-01-11T21:07:13.748Z,8.25
2023-01-11T21:09:40.925Z,8.16
2023-01-11T21:12:10.389Z,8.25
2023-01-11T21:14:37.288Z,8.21
2023-01-11T21:17:03.802Z,8.25
2023-01-11T21:19:32.386Z,8.11
2023-01-11T21:22:04.747Z,8.24
2023-01-11T21:24:32.101Z,8.10
2023-01-11T21:26:58.751Z,8.10
2023-01-11T21:29:32.267Z,8.24
2023-01-11T21:31:59.188Z,8.25
2023-01-11T21:34:26.045Z,8.33
2023-01-11T21:36:57.645Z,8.41
2023-01-11T21:39:45.536Z,8.37
2023-01-11T21:42:18.000Z,8.22
2023-01-11T21:44:49.675Z,8.35
2023-01-11T21:47:25.663Z,8.15
2023-01-11T21:49:55.521Z,8.09
2023-01-11T21:52:22.527Z,8.23
2023-01-11T21:54:50.379Z,8.33
2023-01-11T21:57:17.120Z,8.15
2023-01-11T21:59:43.758Z,8.13
2023-01-11T22:02:11.624Z,8.16
2023-01-11T22:04:38.527Z,8.19
2023-01-11T22:07:05.180Z,8.14
2023-01-11T22:09:33.266Z,8.19
2023-01-11T22:12:00.674Z,8.31
2023-01-11T22:14:30.337Z,8.36
2023-01-11T22:16:57.157Z,8.29
2023-01-11T22:19:24.042Z,8.41
2023-01-11T22:21:50.756Z,8.25
2023-01-11T22:24:17.819Z,8.05
2023-01-11T22:26:45.077Z,8.12
2023-01-11T22:29:11.909Z,8.31
2023-01-11T22:31:40.607Z,8.24
2023-01-11T22:34:07.651Z,8.34
2023-01-11T22:36:34.206Z,8.42
2023-01-11T22:39:01.244Z,8.24
2023-01-11T22:41:27.854Z,8.23
2023-01-11T22:43:55.295Z,8.10
2023-01-11T22:46:24.395Z,8.18
2023-01-11T22:48:51.775Z,8.25
2023-01-11T22:51:22.269Z,8.37
2023-01-11T22:53:51.031Z,8.38
2023-01-11T22:56:20.052Z,8.56
2023-01-11T22:58:47.133Z,8.31
2023-01-11T23:01:16.755Z,8.52
2023-01-11T23:03:45.083Z,8.25
2023-01-11T23:06:12.862Z,8.41
2023-01-11T23:08:41.793Z,8.34
2023-01-11T23:11:14.774Z,8.17
2023-01-11T23:13:55.166Z,8.24
2023-01-11T23:16:24.317Z,8.15
2023-01-11T23:18:51.095Z,8.35
2023-01-11T23:21:21.427Z,8.70
2023-01-11T23:23:54.148Z,8.61
2023-01-11T23:26:21.868Z,8.52
2023-01-11T23:31:37.101Z,8.71
2023-01-11T23:34:06.980Z,8.76
2023-01-11T23:36:36.044Z,8.79
2023-01-11T23:39:04.100Z,8.86
2023-01-11T23:41:49.544Z,8.82
2023-01-11T23:44:17.583Z,9.09
2023-01-11T23:47:04.042Z,8.91
2023-01-11T23:49:31.814Z,8.94
2023-01-11T23:52:04.696Z,8.82
2023-01-11T23:54:33.978Z,8.97
2023-01-11T23:57:02.364Z,9.03
2023-01-11T23:59:29.944Z,8.99
